Time;durP1;ratioP1;P1;durP2;ratioP2;P2;SDS_P1;SDS_P2;PMS_P1;PMS_P2;Temp;Humidity;BMP_temperature;BMP_pressure;BME280_temperature;BME280_humidity;BME280_pressure;Samples;Min_cycle;Max_cycle;Signal;HPM_P1;HPM_P2
2022/06/04 00:01:27;;;;;;;;;;;;;;;22.97;38.60;100608.47;5029096;28;7007;-76
2022/06/04 00:03:52;;;;;;;;;;;;;;;22.91;38.49;100616.34;5033971;28;7659;-76
2022/06/04 00:06:18;;;;;;;;;;;;;;;22.85;38.39;100620.69;5022585;28;8237;-76
2022/06/04 00:08:44;;;;;;;;;;;;;;;22.79;39.13;100619.81;5038151;28;6857;-76
2022/06/04 00:16:38;;;;;;;;;;;;;;;22.59;39.15;100612.81;5019466;28;6851;-76
2022/06/04 00:19:04;;;;;;;;;;;;;;;22.55;38.94;100609.34;5033596;28;7076;-76
2022/06/04 00:21:30;;;;;;;;;;;;;;;22.51;38.98;100620.66;5035517;28;7488;-76
2022/06/04 00:23:55;;;;;;;;;;;;;;;22.50;39.04;100629.31;5022304;28;6819;-76
2022/06/04 00:26:21;;;;;;;;;;;;;;;;;;4998373;28;6989;-76
2022/06/04 00:28:47;;;;;;;;;;;;;;;;;;5005712;28;6963;-76
2022/06/04 00:31:16;;;;;;;;;;;;;;;22.45;39.06;100620.59;5037971;28;6962;-77
2022/06/04 00:33:43;;;;;;;;;;;;;;;22.43;39.14;100615.34;5021507;28;6824;-77
2022/06/04 00:36:09;;;;;;;;;;;;;;;22.41;39.16;100609.28;5034174;28;6796;-77
2022/06/04 00:38:35;;;;;;;;;;;;;;;22.39;39.14;100607.50;5019147;28;7051;-77
2022/06/04 00:41:25;;;;;;;;;;;;;;;22.36;39.32;100599.69;5003312;28;7009;-77
2022/06/04 00:44:09;;;;;;;;;;;;;;;22.29;39.57;100607.50;5027742;28;6977;-77
2022/06/04 00:46:40;;;;;;;;;;;;;;;22.23;39.54;100612.72;5023096;28;7128;-77
2022/06/04 00:49:13;;;;;;;;;;;;;;;22.21;39.40;100614.41;5042928;28;7048;-77
2022/06/04 00:51:45;;;;;;;;;;;;;;;22.20;39.70;100625.72;5023873;28;6804;-77
2022/06/04 00:54:12;;;;;;;;;;;;;;;22.19;39.65;100634.44;5007949;28;7244;-77
2022/06/04 00:57:07;;;;;;;;;;;;;;;22.17;39.39;100630.94;5024601;28;8826;-77
2022/06/04 01:00:01;;;;;;;;;;;;;;;22.13;39.50;100634.44;5010288;28;7014;-77
2022/06/04 01:02:51;;;;;;;;;;;;;;;22.06;39.81;100634.41;5038681;28;7098;-77
2022/06/04 01:05:34;;;;;;;;;;;;;;;22.05;39.64;100655.25;5021951;28;7250;-77
2022/06/04 01:08:32;;;;;;;;;;;;;;;22.02;39.76;100653.53;5037540;28;6843;-77
2022/06/04 01:11:22;;;;;;;;;;;;;;;22.01;40.04;100661.34;5001858;28;7027;-77
2022/06/04 01:14:11;;;;;;;;;;;;;;;21.99;40.18;100658.72;5040162;28;7987;-77
2022/06/04 01:16:50;;;;;;;;;;;;;;;21.96;39.90;100653.50;5039477;28;8598;-77
2022/06/04 01:19:53;;;;;;;;;;;;;;;21.94;39.83;100664.78;5023616;28;6835;-77
2022/06/04 01:23:11;;;;;;;;;;;;;;;21.90;40.36;100671.72;5022316;28;6823;-77
2022/06/04 01:26:19;;;;;;;;;;;;;;;21.84;40.06;100674.31;5041430;28;8387;-77
2022/06/04 01:28:56;;;;;;;;;;;;;;;21.75;40.45;100669.88;5024596;28;7458;-77
2022/06/04 01:31:35;;;;;;;;;;;;;;;21.72;40.08;100665.50;5035870;28;7541;-77
2022/06/04 01:34:07;;;;;;;;;;;;;;;21.70;40.34;100669.84;5023754;28;6847;-77
2022/06/04 01:37:03;;;;;;;;;;;;;;;21.65;40.63;100671.56;5004686;28;8545;-77
2022/06/04 01:42:25;;;;;;;;;;;;;;;21.54;40.60;100673.22;5034303;28;6907;-77
2022/06/04 01:44:55;;;;;;;;;;;;;;;21.48;40.79;100677.50;5038877;28;8758;-77
2022/06/04 01:47:22;;;;;;;;;;;;;;;21.42;40.89;100669.63;5020532;28;8710;-77
2022/06/04 01:49:54;;;;;;;;;;;;;;;21.36;40.88;100667.84;5024756;28;7117;-77
2022/06/04 01:52:36;;;;;;;;;;;;;;;21.29;40.97;100676.47;5018570;28;8411;-77
2022/06/04 01:55:22;;;;;;;;;;;;;;;21.21;40.94;100668.59;5009308;28;7076;-77
2022/06/04 01:58:05;;;;;;;;;;;;;;;21.14;41.14;100673.75;5030940;28;6819;-78
2022/06/04 02:00:46;;;;;;;;;;;;;;;21.06;41.50;100671.09;5036353;28;7187;-77
2022/06/04 02:03:19;;;;;;;;;;;;;;;20.99;41.32;100656.25;5012485;28;6989;-77
2022/06/04 02:05:55;;;;;;;;;;;;;;;20.94;41.82;100664.91;5024763;28;7880;-77
2022/06/04 02:08:48;;;;;;;;;;;;;;;20.90;41.70;100660.53;5037499;28;7238;-77
2022/06/04 02:11:19;;;;;;;;;;;;;;;20.83;41.57;100671.75;4985312;28;7025;-77
2022/06/04 02:13:50;;;;;;;;;;;;;;;20.77;41.64;100671.66;4991645;28;7187;-77
2022/06/04 02:16:31;;;;;;;;;;;;;;;20.73;41.97;100669.88;5003730;28;7018;-76
2022/06/04 02:18:59;;;;;;;;;;;;;;;20.66;41.48;100669.78;5018677;28;6835;-76
2022/06/04 02:21:28;;;;;;;;;;;;;;;20.61;41.99;100676.69;5038193;28;6819;-76
2022/06/04 02:23:55;;;;;;;;;;;;;;;20.56;42.38;100667.09;5036259;28;7156;-76
2022/06/04 02:26:24;;;;;;;;;;;;;;;20.47;42.25;100667.84;5030935;28;8084;-77
2022/06/04 02:28:51;;;;;;;;;;;;;;;20.41;41.99;100671.25;5022490;28;6820;-77
2022/06/04 02:31:56;;;;;;;;;;;;;;;20.32;42.31;100666.81;5035165;28;7047;-77
2022/06/04 02:34:44;;;;;;;;;;;;;;;20.21;42.87;100660.63;5022177;28;8497;-77
2022/06/04 02:37:24;;;;;;;;;;;;;;;20.10;42.56;100663.97;5023224;28;7515;-77
2022/06/04 02:40:09;;;;;;;;;;;;;;;20.02;42.73;100659.50;5018602;28;6816;-78
2022/06/04 02:43:00;;;;;;;;;;;;;;;19.93;43.33;100653.31;5037351;28;7252;-78
2022/06/04 02:45:40;;;;;;;;;;;;;;;19.85;42.88;100658.38;5020543;28;7042;-78
2022/06/04 02:48:28;;;;;;;;;;;;;;;19.77;43.46;100649.59;5040355;28;6804;-78
2022/06/04 02:51:10;;;;;;;;;;;;;;;19.71;43.65;100652.13;5018670;28;8465;-78
2022/06/04 02:53:38;;;;;;;;;;;;;;;19.66;43.18;100643.38;4986978;28;6824;-78
2022/06/04 02:56:15;;;;;;;;;;;;;;;19.61;43.47;100647.66;5035364;28;6895;-78
2022/06/04 02:58:47;;;;;;;;;;;;;;;19.56;43.82;100648.44;5018396;28;8329;-78
2022/06/04 03:01:13;;;;;;;;;;;;;;;19.51;44.19;100641.44;5014790;28;9531;-78
2022/06/04 03:03:40;;;;;;;;;;;;;;;19.44;44.10;100645.66;5017416;28;7903;-78
2022/06/04 03:06:19;;;;;;;;;;;;;;;19.40;43.73;100643.84;5005368;28;6792;-78
2022/06/04 03:08:45;;;;;;;;;;;;;;;19.36;44.06;100632.56;4985447;28;8538;-78
2022/06/04 03:11:11;;;;;;;;;;;;;;;19.29;44.10;100636.78;5025242;28;8538;-78
2022/06/04 03:13:36;;;;;;;;;;;;;;;19.25;44.07;100640.19;5020521;28;6979;-78
2022/06/04 03:16:02;;;;;;;;;;;;;;;19.20;44.81;100652.22;5038989;28;6784;-78
2022/06/04 03:18:27;;;;;;;;;;;;;;;19.14;44.83;100647.78;5015496;28;6860;-78
2022/06/04 03:20:53;;;;;;;;;;;;;;;19.12;44.80;100638.22;5032785;28;6866;-78
2022/06/04 03:23:19;;;;;;;;;;;;;;;19.10;44.52;100639.91;5023502;28;6808;-78
2022/06/04 03:25:44;;;;;;;;;;;;;;;19.06;44.52;100633.78;5017543;28;7059;-78
2022/06/04 03:28:10;;;;;;;;;;;;;;;19.03;45.35;100632.91;5036718;28;6937;-78
2022/06/04 03:30:36;;;;;;;;;;;;;;;18.98;44.91;100631.03;5020453;28;7005;-78
2022/06/04 03:33:03;;;;;;;;;;;;;;;18.94;45.01;100631.84;5014018;28;6804;-78
2022/06/04 03:35:29;;;;;;;;;;;;;;;18.90;45.51;100637.81;5027978;28;8464;-78
2022/06/04 03:37:55;;;;;;;;;;;;;;;18.87;45.90;100637.78;5032660;28;6848;-79
2022/06/04 03:40:21;;;;;;;;;;;;;;;18.85;45.61;100647.28;5020912;28;7182;-78
2022/06/04 03:42:47;;;;;;;;;;;;;;;18.82;45.84;100644.59;5022927;28;7239;-77
2022/06/04 03:45:14;;;;;;;;;;;;;;;18.83;46.02;100651.53;5033464;28;7715;-78
2022/06/04 03:47:40;;;;;;;;;;;;;;;18.82;46.26;100652.38;5018785;28;7756;-78
2022/06/04 03:50:15;;;;;;;;;;;;;;;18.84;45.92;100661.09;5033580;28;7038;-78
2022/06/04 03:52:41;;;;;;;;;;;;;;;18.81;46.18;100661.91;5003193;28;7069;-78
2022/06/04 03:55:10;;;;;;;;;;;;;;;18.84;46.03;100674.09;5034784;28;6823;-78
2022/06/04 03:57:38;;;;;;;;;;;;;;;18.85;46.59;100681.03;5020778;28;8704;-78
2022/06/04 04:00:30;;;;;;;;;;;;;;;18.88;46.58;100681.97;5001942;28;6847;-78
2022/06/04 04:03:17;;;;;;;;;;;;;;;18.89;46.03;100688.00;5028410;28;6843;-77
2022/06/04 04:05:53;;;;;;;;;;;;;;;18.92;46.52;100692.41;4989145;28;7020;-76
2022/06/04 04:08:23;;;;;;;;;;;;;;;18.93;46.31;100697.63;5022755;28;6812;-76
2022/06/04 04:10:49;;;;;;;;;;;;;;;18.96;46.51;100697.69;5031639;28;6807;-76
2022/06/04 04:13:16;;;;;;;;;;;;;;;18.99;46.12;100689.06;5016138;28;7852;-76
2022/06/04 04:15:43;;;;;;;;;;;;;;;19.01;46.23;100685.66;5022069;28;6879;-76
2022/06/04 04:18:09;;;;;;;;;;;;;;;19.03;46.82;100679.66;5024010;28;7188;-76
2022/06/04 04:20:41;;;;;;;;;;;;;;;19.04;46.30;100671.88;5042337;28;8135;-76
2022/06/04 04:23:08;;;;;;;;;;;;;;;19.06;46.97;100674.50;5040659;28;7157;-77
2022/06/04 04:25:36;;;;;;;;;;;;;;;19.07;47.12;100681.44;4995636;28;7023;-76
2022/06/04 04:28:03;;;;;;;;;;;;;;;19.08;46.89;100672.78;5025769;28;6971;-76
2022/06/04 04:30:32;;;;;;;;;;;;;;;19.09;46.55;100674.53;5016483;28;7001;-76
2022/06/04 04:32:59;;;;;;;;;;;;;;;19.11;46.51;100683.22;5020229;28;7860;-76
2022/06/04 04:35:31;;;;;;;;;;;;;;;19.14;46.80;100698.88;5022940;28;7093;-77
2022/06/04 04:37:58;;;;;;;;;;;;;;;19.21;47.05;100700.72;5024612;28;6979;-77
2022/06/04 04:40:27;;;;;;;;;;;;;;;19.27;46.93;100695.63;5035871;28;7201;-76
2022/06/04 04:42:53;;;;;;;;;;;;;;;19.36;46.64;100696.66;4987466;28;7378;-76
2022/06/04 04:45:22;;;;;;;;;;;;;;;19.42;46.81;100708.00;5035698;28;6954;-76
2022/06/04 04:47:48;;;;;;;;;;;;;;;19.49;46.78;100706.38;5039350;28;7252;-76
2022/06/04 04:50:26;;;;;;;;;;;;;;;19.55;46.77;100714.28;5038864;28;7152;-76
2022/06/04 04:52:53;;;;;;;;;;;;;;;19.64;46.41;100717.88;5010948;28;6899;-76
2022/06/04 04:55:19;;;;;;;;;;;;;;;19.73;46.76;100715.44;5009659;28;8485;-76
2022/06/04 04:57:45;;;;;;;;;;;;;;;19.78;46.35;100708.56;5009167;28;6823;-76
2022/06/04 05:00:13;;;;;;;;;;;;;;;19.82;46.56;100709.47;4998202;28;6788;-77
2022/06/04 05:02:39;;;;;;;;;;;;;;;19.83;46.35;100708.63;5017689;28;6999;-77
2022/06/04 05:05:06;;;;;;;;;;;;;;;19.84;46.33;100712.97;5042049;28;6803;-77
2022/06/04 05:07:32;;;;;;;;;;;;;;;19.85;46.38;100726.00;5021280;28;7213;-77
2022/06/04 05:09:58;;;;;;;;;;;;;;;19.89;46.48;100723.44;5008282;28;6807;-76
2022/06/04 05:12:24;;;;;;;;;;;;;;;19.92;46.48;100724.38;5008411;28;6875;-76
2022/06/04 05:14:50;;;;;;;;;;;;;;;19.97;46.37;100727.97;5034534;28;6899;-77
2022/06/04 05:17:16;;;;;;;;;;;;;;;20.03;46.27;100728.88;5032366;28;6870;-77
2022/06/04 05:19:41;;;;;;;;;;;;;;;20.06;46.01;100734.16;5036105;28;6926;-77
2022/06/04 05:22:07;;;;;;;;;;;;;;;20.11;46.04;100733.34;5021724;28;6787;-77
2022/06/04 05:24:35;;;;;;;;;;;;;;;20.15;46.26;100731.69;5037535;28;6807;-76
2022/06/04 05:27:03;;;;;;;;;;;;;;;20.19;46.08;100733.44;5022539;28;8296;-76
2022/06/04 05:29:31;;;;;;;;;;;;;;;20.22;46.17;100732.63;5024903;28;6986;-77
2022/06/04 05:31:58;;;;;;;;;;;;;;;20.26;45.85;100732.69;5012421;28;7149;-76
2022/06/04 05:34:25;;;;;;;;;;;;;;;20.30;46.01;100731.00;4998360;28;6827;-76
2022/06/04 05:36:53;;;;;;;;;;;;;;;20.36;45.80;100738.88;5012002;28;6804;-77
2022/06/04 05:39:21;;;;;;;;;;;;;;;20.41;45.89;100738.94;5008134;28;6812;-76
2022/06/04 05:41:46;;;;;;;;;;;;;;;20.46;45.34;100746.78;5018890;28;6899;-77
2022/06/04 05:44:13;;;;;;;;;;;;;;;20.51;45.69;100747.75;5035234;28;6878;-76
2022/06/04 05:46:42;;;;;;;;;;;;;;;20.55;45.69;100754.72;5007273;28;7165;-76
2022/06/04 05:49:12;;;;;;;;;;;;;;;20.57;45.44;100753.03;5019746;28;7940;-76
2022/06/04 05:51:44;;;;;;;;;;;;;;;20.62;45.76;100755.69;5008455;28;7213;-77
2022/06/04 05:54:12;;;;;;;;;;;;;;;20.67;45.16;100756.63;5004627;28;6815;-77
2022/06/04 05:56:46;;;;;;;;;;;;;;;20.73;45.15;100748.88;5042946;28;6807;-77
2022/06/04 05:59:18;;;;;;;;;;;;;;;20.86;45.30;100760.34;5009176;28;8608;-77
2022/06/04 06:01:45;;;;;;;;;;;;;;;20.95;45.38;100754.34;5007881;28;7015;-76
2022/06/04 06:04:14;;;;;;;;;;;;;;;21.05;45.24;100757.91;5008801;28;7043;-77
2022/06/04 06:06:45;;;;;;;;;;;;;;;21.12;45.10;100759.72;5025506;28;7018;-77
2022/06/04 06:09:15;;;;;;;;;;;;;;;21.22;44.82;100763.31;4969009;28;1110302;-77
2022/06/04 06:11:43;;;;;;;;;;;;;;;21.30;44.67;100766.00;5025078;28;7177;-77
2022/06/04 06:14:10;;;;;;;;;;;;;;;21.34;44.50;100767.75;5039913;28;6796;-77
2022/06/04 06:16:41;;;;;;;;;;;;;;;21.40;44.47;100778.25;5036616;28;6799;-77
2022/06/04 06:19:07;;;;;;;;;;;;;;;21.47;44.20;100780.06;5020970;28;8376;-77
2022/06/04 06:21:35;;;;;;;;;;;;;;;21.52;44.23;100782.72;5021961;28;7871;-76
2022/06/04 06:24:02;;;;;;;;;;;;;;;21.57;43.92;100787.97;5043271;28;6812;-77
2022/06/04 06:26:39;;;;;;;;;;;;;;;21.58;44.13;100781.88;5043690;28;6878;-77
2022/06/04 06:29:05;;;;;;;;;;;;;;;21.59;43.85;100779.31;5041385;28;6827;-77
2022/06/04 06:31:33;;;;;;;;;;;;;;;21.65;44.01;100778.47;5022210;28;6811;-77
2022/06/04 06:34:00;;;;;;;;;;;;;;;21.68;44.21;100775.03;4987669;28;6979;-77
2022/06/04 06:36:28;;;;;;;;;;;;;;;21.71;44.14;100777.69;5024442;28;7059;-77
2022/06/04 06:38:54;;;;;;;;;;;;;;;21.75;44.16;100775.13;5006898;28;7227;-77
2022/06/04 06:41:23;;;;;;;;;;;;;;;21.86;44.27;100789.97;5036756;28;9483;-77
2022/06/04 06:43:50;;;;;;;;;;;;;;;21.97;44.19;100790.91;4991781;28;6785;-77
2022/06/04 06:46:20;;;;;;;;;;;;;;;22.11;44.15;100785.78;5022527;28;6788;-77
2022/06/04 06:48:51;;;;;;;;;;;;;;;22.25;43.67;100778.03;5008361;28;7187;-77
2022/06/04 06:51:34;;;;;;;;;;;;;;;22.36;43.40;100788.56;5000210;28;7238;-77
2022/06/04 06:54:01;;;;;;;;;;;;;;;22.38;43.26;100796.38;5043195;28;6823;-78
2022/06/04 06:56:31;;;;;;;;;;;;;;;22.42;43.59;100795.53;5038313;28;7903;-77
2022/06/04 06:58:59;;;;;;;;;;;;;;;22.48;43.48;100793.84;5033493;28;8488;-77
2022/06/04 07:01:26;;;;;;;;;;;;;;;22.57;43.08;100793.03;5015407;28;7352;-77
2022/06/04 07:03:55;;;;;;;;;;;;;;;22.67;43.26;100798.28;5037205;28;6808;-77
2022/06/04 07:06:37;;;;;;;;;;;;;;;22.82;43.25;100797.47;5014299;28;6992;-77
2022/06/04 07:09:07;;;;;;;;;;;;;;;22.90;42.34;100801.00;5040787;28;7378;-77
2022/06/04 07:11:33;;;;;;;;;;;;;;;22.97;42.26;100801.88;5021944;28;7309;-77
2022/06/04 07:13:59;;;;;;;;;;;;;;;23.00;42.22;100808.00;5023693;28;8105;-77
2022/06/04 07:16:28;;;;;;;;;;;;;;;23.03;42.30;100801.91;5021891;28;8790;-78
2022/06/04 07:18:53;;;;;;;;;;;;;;;23.10;42.27;100803.69;5040171;28;7210;-78
2022/06/04 07:21:19;;;;;;;;;;;;;;;23.21;42.48;100805.44;5024029;28;6866;-78
2022/06/04 07:23:46;;;;;;;;;;;;;;;23.24;42.32;100802.81;5036667;28;8527;-78
2022/06/04 07:26:13;;;;;;;;;;;;;;;23.24;42.32;100797.59;5039239;28;6894;-77
2022/06/04 07:28:41;;;;;;;;;;;;;;;23.24;41.70;100788.00;5009009;28;8534;-78
2022/06/04 07:31:09;;;;;;;;;;;;;;;23.26;41.39;100793.22;5022082;28;9109;-77
2022/06/04 07:33:35;;;;;;;;;;;;;;;23.23;41.52;100790.63;5009156;28;6820;-78
2022/06/04 07:36:02;;;;;;;;;;;;;;;23.23;41.67;100793.22;5038098;28;7053;-78
2022/06/04 07:38:29;;;;;;;;;;;;;;;23.27;42.29;100790.63;5024552;28;7017;-77
2022/06/04 07:40:54;;;;;;;;;;;;;;;23.35;41.79;100793.28;5037098;28;6787;-77
2022/06/04 07:43:20;;;;;;;;;;;;;;;23.42;41.24;100781.09;5040243;28;6779;-77
2022/06/04 07:45:46;;;;;;;;;;;;;;;23.49;41.41;100777.59;5034757;28;7451;-77
2022/06/04 07:48:12;;;;;;;;;;;;;;;23.53;41.35;100775.84;5025317;28;6863;-77
2022/06/04 07:50:39;;;;;;;;;;;;;;;23.53;41.18;100781.09;5008299;28;6796;-77
2022/06/04 07:53:06;;;;;;;;;;;;;;;23.55;41.46;100776.72;5025227;28;8183;-77
2022/06/04 07:55:37;;;;;;;;;;;;;;;23.60;41.51;100779.34;5023411;28;6808;-78
2022/06/04 07:58:03;;;;;;;;;;;;;;;23.61;41.02;100781.97;5022291;28;6948;-77
2022/06/04 08:00:28;;;;;;;;;;;;;;;23.57;41.05;100778.47;5019650;28;7067;-78
2022/06/04 08:02:54;;;;;;;;;;;;;;;23.49;41.22;100774.97;5025766;28;6784;-77
2022/06/04 08:05:20;;;;;;;;;;;;;;;23.44;41.05;100780.22;5036503;28;7364;-77
2022/06/04 08:07:46;;;;;;;;;;;;;;;23.46;41.50;100768.88;5037865;28;6775;-78
2022/06/04 08:10:13;;;;;;;;;;;;;;;23.50;41.69;100763.63;5021099;28;7194;-78
2022/06/04 08:12:44;;;;;;;;;;;;;;;23.53;41.45;100765.41;4970037;28;7057;-77
2022/06/04 08:15:11;;;;;;;;;;;;;;;23.57;41.51;100765.41;5004288;28;6906;-77
2022/06/04 08:17:36;;;;;;;;;;;;;;;23.64;40.91;100768.88;5041479;28;7030;-77
2022/06/04 08:20:02;;;;;;;;;;;;;;;23.74;41.29;100766.25;5034843;28;8491;-77
2022/06/04 08:22:28;;;;;;;;;;;;;;;23.87;41.15;100773.25;5031476;28;7034;-77
2022/06/04 08:24:54;;;;;;;;;;;;;;;23.96;41.37;100774.94;5004790;28;6931;-77
2022/06/04 08:27:20;;;;;;;;;;;;;;;24.03;40.62;100775.81;5022641;28;7340;-78
2022/06/04 08:29:47;;;;;;;;;;;;;;;24.07;40.76;100781.06;5039983;28;6994;-78
2022/06/04 08:32:13;;;;;;;;;;;;;;;24.12;40.35;100786.31;5022373;28;6890;-78
2022/06/04 08:34:39;;;;;;;;;;;;;;;24.12;40.25;100787.19;5040447;28;6799;-78
2022/06/04 08:37:06;;;;;;;;;;;;;;;24.06;40.26;100797.66;5041334;28;6819;-78
2022/06/04 08:39:33;;;;;;;;;;;;;;;24.02;40.69;100800.25;5039067;28;6875;-78
2022/06/04 08:42:10;;;;;;;;;;;;;;;24.05;40.85;100808.16;5037469;28;6800;-78
2022/06/04 08:44:57;;;;;;;;;;;;;;;24.11;40.33;100821.22;5024212;28;7334;-77
2022/06/04 08:47:46;;;;;;;;;;;;;;;24.25;40.45;100819.44;5020806;28;7031;-77
2022/06/04 08:50:21;;;;;;;;;;;;;;;24.39;40.72;100827.28;5005815;28;6879;-77
2022/06/04 08:52:56;;;;;;;;;;;;;;;24.54;40.43;100820.25;5023192;28;7057;-77
2022/06/04 08:59:25;;;;;;;;;;;;;;;25.01;40.30;100820.06;5034541;28;7082;-77
2022/06/04 09:02:00;;;;;;;;;;;;;;;25.28;40.05;100821.66;5019680;28;6804;-77
2022/06/04 09:05:08;;;;;;;;;;;;;;;25.53;39.28;100824.16;5007269;28;6987;-78
2022/06/04 09:07:47;;;;;;;;;;;;;;;25.81;38.83;100823.03;5039054;28;7219;-79
2022/06/04 09:10:23;;;;;;;;;;;;;;;26.06;38.87;100821.94;5038564;28;6919;-78
2022/06/04 09:12:58;;;;;;;;;;;;;;;26.38;38.61;100812.00;5039602;28;6981;-78
2022/06/04 09:15:31;;;;;;;;;;;;;;;26.72;38.07;100808.97;5010391;28;8037;-78
2022/06/04 09:18:16;;;;;;;;;;;;;;;27.03;37.95;100805.09;5023388;28;7432;-78
2022/06/04 09:20:47;;;;;;;;;;;;;;;27.33;37.28;100799.38;5017173;28;6987;-78
2022/06/04 09:23:23;;;;;;;;;;;;;;;27.65;36.80;100796.25;5024374;28;7379;-78
2022/06/04 09:26:10;;;;;;;;;;;;;;;27.97;36.09;100800.09;5036953;28;9666;-78
2022/06/04 09:29:12;;;;;;;;;;;;;;;28.19;36.52;100809.38;4986909;28;7012;-77
2022/06/04 09:31:55;;;;;;;;;;;;;;;28.45;35.81;100815.91;5034827;28;6820;-78
2022/06/04 09:34:38;;;;;;;;;;;;;;;28.76;35.16;100821.44;5039622;28;6961;-78
2022/06/04 09:37:09;;;;;;;;;;;;;;;29.04;35.36;100822.59;5009864;28;7051;-78
2022/06/04 09:39:40;;;;;;;;;;;;;;;29.34;35.06;100828.06;4988618;28;7560;-78
2022/06/04 09:42:22;;;;;;;;;;;;;;;29.66;34.71;100823.81;5035329;28;9330;-78
2022/06/04 09:45:05;;;;;;;;;;;;;;;29.94;33.83;100818.69;5007003;28;6968;-78
2022/06/04 09:47:35;;;;;;;;;;;;;;;30.31;33.50;100815.97;5007430;28;6815;-78
2022/06/04 09:50:19;;;;;;;;;;;;;;;30.65;33.40;100817.66;5038488;28;7777;-78
2022/06/04 09:53:11;;;;;;;;;;;;;;;30.83;32.68;100810.97;5014609;28;7230;-78
2022/06/04 09:55:47;;;;;;;;;;;;;;;31.02;32.24;100805.97;5020938;28;7161;-78
2022/06/04 09:58:32;;;;;;;;;;;;;;;30.96;31.83;100805.31;5008393;28;7203;-78
2022/06/04 10:01:08;;;;;;;;;;;;;;;30.70;32.63;100809.59;5022286;28;6840;-78
2022/06/04 10:03:38;;;;;;;;;;;;;;;30.39;32.52;100805.19;5008345;28;6808;-78
2022/06/04 10:06:08;;;;;;;;;;;;;;;30.14;32.29;100816.47;5017210;28;7118;-78
2022/06/04 10:11:24;;;;;;;;;;;;;;;29.60;32.82;100810.78;5007143;28;7271;-77
2022/06/04 10:13:55;;;;;;;;;;;;;;;29.57;33.39;100816.13;5024284;28;7066;-77
2022/06/04 10:16:45;;;;;;;;;;;;;;;29.89;33.42;100811.78;5039872;28;7892;-78
2022/06/04 10:19:21;;;;;;;;;;;;;;;30.36;33.18;100814.06;5004386;28;6868;-78
2022/06/04 10:22:01;;;;;;;;;;;;;;;30.58;32.24;100809.03;4983941;28;7196;-78
2022/06/04 10:24:30;;;;;;;;;;;;;;;30.63;32.29;100803.59;5024220;28;8534;-78
2022/06/04 10:27:22;;;;;;;;;;;;;;;30.68;32.19;100811.44;5007818;28;6824;-77
2022/06/04 10:29:53;;;;;;;;;;;;;;;30.69;31.93;100808.75;5040494;28;6827;-78
2022/06/04 10:32:51;;;;;;;;;;;;;;;30.74;32.13;100811.25;5036445;28;7401;-78
2022/06/04 10:35:22;;;;;;;;;;;;;;;30.86;32.79;100816.16;5025990;28;6828;-77
2022/06/04 10:38:31;;;;;;;;;;;;;;;31.14;32.01;100823.25;5037694;28;6800;-77
2022/06/04 10:41:26;;;;;;;;;;;;;;;31.23;31.98;100818.56;5038814;28;6879;-78
2022/06/04 10:44:37;;;;;;;;;;;;;;;31.24;31.75;100815.03;5041228;28;7039;-77
2022/06/04 10:47:32;;;;;;;;;;;;;;;31.22;32.25;100817.69;5019431;28;6819;-77
2022/06/04 10:51:25;;;;;;;;;;;;;;;31.27;32.07;100820.22;5039352;28;7032;-77
2022/06/04 10:53:50;;;;;;;;;;;;;;;31.27;31.79;100814.94;5027201;28;9533;-77
2022/06/04 10:56:40;;;;;;;;;;;;;;;31.35;31.82;100814.72;5025196;28;6815;-77
2022/06/04 10:59:34;;;;;;;;;;;;;;;31.45;31.36;100813.50;5037567;28;8476;-78
2022/06/04 11:02:21;;;;;;;;;;;;;;;31.61;31.31;100815.59;5035104;28;6903;-78
2022/06/04 11:05:00;;;;;;;;;;;;;;;31.70;31.13;100808.22;5003256;28;6819;-77
2022/06/04 11:07:52;;;;;;;;;;;;;;;31.80;30.89;100821.16;5038222;28;6819;-77
2022/06/04 11:10:28;;;;;;;;;;;;;;;31.80;31.06;100813.22;5023208;28;6804;-78
2022/06/04 11:13:23;;;;;;;;;;;;;;;31.78;30.87;100815.06;5016066;28;7190;-78
2022/06/04 11:16:04;;;;;;;;;;;;;;;31.85;31.21;100816.56;5022676;28;6811;-76
2022/06/04 11:18:58;;;;;;;;;;;;;;;31.87;30.96;100817.41;5039335;28;7109;-76
2022/06/04 11:21:48;;;;;;;;;;;;;;;32.02;31.06;100816.00;5017615;28;6999;-76
2022/06/04 11:24:26;;;;;;;;;;;;;;;32.36;30.14;100821.88;5024615;28;6997;-76
2022/06/04 11:27:21;;;;;;;;;;;;;;;32.46;30.42;100828.59;5023287;28;7186;-77
2022/06/04 11:29:54;;;;;;;;;;;;;;;32.32;29.92;100836.16;5034145;28;6832;-76
2022/06/04 11:32:47;;;;;;;;;;;;;;;32.34;30.22;100836.94;5020127;28;7136;-76
2022/06/04 11:35:46;;;;;;;;;;;;;;;32.50;30.10;100834.63;5025553;28;7354;-76
2022/06/04 11:38:25;;;;;;;;;;;;;;;32.71;29.98;100832.94;4976522;28;6971;-76
2022/06/04 11:41:44;;;;;;;;;;;;;;;33.10;30.05;100827.03;4999782;28;6959;-76
2022/06/04 11:44:45;;;;;;;;;;;;;;;33.50;29.46;100815.72;5003594;28;6910;-76
2022/06/04 11:47:46;;;;;;;;;;;;;;;33.88;28.93;100818.53;4987504;28;7411;-76
2022/06/04 11:50:47;;;;;;;;;;;;;;;34.16;28.80;100820.00;5021019;28;7174;-76
2022/06/04 11:53:44;;;;;;;;;;;;;;;34.55;27.99;100810.31;5037932;28;6995;-76
2022/06/04 11:56:26;;;;;;;;;;;;;;;34.80;27.85;100810.97;5019041;28;6816;-76
2022/06/04 11:59:01;;;;;;;;;;;;;;;35.07;28.13;100803.44;5038807;28;6800;-76
2022/06/04 12:02:01;;;;;;;;;;;;;;;35.47;27.17;100795.28;5015661;28;7286;-77
2022/06/04 12:05:00;;;;;;;;;;;;;;;35.69;27.19;100788.88;5005691;28;6976;-77
2022/06/04 12:07:39;;;;;;;;;;;;;;;35.70;26.85;100788.78;5023313;28;7348;-76
2022/06/04 12:10:24;;;;;;;;;;;;;;;35.61;26.99;100777.75;5031967;28;7214;-76
2022/06/04 12:13:07;;;;;;;;;;;;;;;35.54;26.56;100775.38;5034687;28;6867;-76
2022/06/04 12:16:06;;;;;;;;;;;;;;;35.50;26.79;100787.13;5039128;28;6803;-76
2022/06/04 12:24:15;;;;;;;;;;;;;;;35.45;26.71;100783.84;5017703;28;6823;-76
2022/06/04 12:25:10;;;;;;;;;;;;;;;35.39;26.55;100770.81;5025017;28;7336;-75
2022/06/04 12:28:04;;;;;;;;;;;;;;;35.48;26.88;100773.03;5001908;28;6820;-76
2022/06/04 12:30:46;;;;;;;;;;;;;;;35.62;26.46;100763.47;5019597;28;8153;-75
2022/06/04 12:33:51;;;;;;;;;;;;;;;35.69;26.43;100771.09;5034517;28;6807;-75
2022/06/04 12:36:32;;;;;;;;;;;;;;;35.65;26.79;100766.00;5018339;28;6811;-75
2022/06/04 12:39:40;;;;;;;;;;;;;;;35.81;26.19;100763.38;5010271;28;7206;-76
2022/06/04 12:42:19;;;;;;;;;;;;;;;36.16;26.84;100767.78;5040843;28;7023;-76
2022/06/04 12:44:57;;;;;;;;;;;;;;;36.41;26.04;100761.97;5043043;28;6883;-76
2022/06/04 12:47:33;;;;;;;;;;;;;;;36.50;26.27;100761.44;5025106;28;7241;-76
2022/06/04 12:50:15;;;;;;;;;;;;;;;36.59;26.23;100762.75;5010975;28;6799;-76
2022/06/04 12:53:20;;;;;;;;;;;;;;;36.71;25.82;100760.38;5023222;28;6800;-75
2022/06/04 12:56:01;;;;;;;;;;;;;;;36.92;25.44;100758.25;4976297;28;8115;-75
2022/06/04 12:58:48;;;;;;;;;;;;;;;37.26;25.25;100758.13;5012300;28;7009;-75
2022/06/04 13:01:18;;;;;;;;;;;;;;;37.51;25.13;100758.38;5030761;28;6887;-76
2022/06/04 13:04:11;;;;;;;;;;;;;;;37.62;25.13;100756.88;5019768;28;6891;-76
2022/06/04 13:06:58;;;;;;;;;;;;;;;37.64;24.81;100754.97;4997511;28;6796;-76
2022/06/04 13:10:03;;;;;;;;;;;;;;;37.47;25.40;100750.63;5015610;28;7208;-76
2022/06/04 13:12:39;;;;;;;;;;;;;;;37.24;24.84;100751.06;5023279;28;6816;-76
2022/06/04 13:15:24;;;;;;;;;;;;;;;37.06;25.04;100746.78;5024578;28;7536;-76
2022/06/04 13:17:52;;;;;;;;;;;;;;;36.90;25.62;100750.34;5008678;28;7316;-76
2022/06/04 13:20:33;;;;;;;;;;;;;;;36.78;25.62;100756.38;5008001;28;6820;-77
2022/06/04 13:23:22;;;;;;;;;;;;;;;36.71;25.67;100753.19;5022682;28;7770;-76
2022/06/04 13:26:08;;;;;;;;;;;;;;;36.60;25.22;100758.28;5007282;28;8602;-76
2022/06/04 13:28:36;;;;;;;;;;;;;;;36.49;25.63;100750.84;5042116;28;7509;-76
2022/06/04 13:31:05;;;;;;;;;;;;;;;36.50;25.80;100748.09;5000586;28;6979;-76
2022/06/04 13:33:36;;;;;;;;;;;;;;;36.42;25.69;100745.88;5026566;28;6895;-76
2022/06/04 13:36:04;;;;;;;;;;;;;;;36.34;25.71;100741.91;5000861;28;7037;-77
2022/06/04 13:38:40;;;;;;;;;;;;;;;36.19;25.85;100735.59;5006062;28;9703;-76
2022/06/04 13:41:16;;;;;;;;;;;;;;;35.95;26.24;100743.97;5008573;28;7077;-76
2022/06/04 13:43:46;;;;;;;;;;;;;;;35.83;26.23;100741.03;4997096;28;7266;-76
2022/06/04 13:46:24;;;;;;;;;;;;;;;35.86;26.41;100746.19;5038833;28;7022;-76
2022/06/04 13:49:02;;;;;;;;;;;;;;;35.93;26.60;100743.22;5007715;28;7073;-76
2022/06/04 13:51:29;;;;;;;;;;;;;;;36.03;26.28;100744.44;5006047;28;7233;-77